Latest Weather Observations for Strahan

IDT60801

Issued at 4:01 pm EST Sunday 1 May 2016 (issued every 30 minutes, with the page automatically refreshed every 10 minutes)

About weather observations | Map of weather stations | Latest weather observations for TAS | Other Formats
Station Details ID: 097072 Name: STRAHAN AERODROME Lat: -42.16 Lon: 145.29 Height: 21.0 m
Data from the previous 72 hours. | See also: Recent months at Strahan
Date/Time
EST
Temp
°C
App
Temp
°C
Dew
Point
Rel
Hum
%
Delta-T
°C
Wind Press
QNH
hPa
Press
MSL
hPa
Rain
since 9 am
mm
Dir
 
Spd
km/h
Gust
km/h
Spd
kts
Gust
kts
01/04:00pm 10.7 1.6 8.5 86 1.1 WSW 46 65 25 35 1000.6 1000.6 14.0
01/03:40pm 10.9 3.2 8.5 85 1.2 WSW 39 59 21 32 999.8 999.8 13.8
01/03:36pm 10.8 3.0 8.4 85 1.2 WSW 39 59 21 32 999.7 999.7 13.8
01/03:30pm 10.7 3.0 8.8 88 0.9 WSW 39 50 21 27 999.5 999.5 13.6
01/03:01pm 10.5 1.9 8.1 85 1.2 WSW 43 61 23 33 998.7 998.7 13.4
01/03:00pm 10.5 1.7 8.1 85 1.2 WSW 44 61 24 33 998.6 998.6 13.4
01/02:58pm 10.5 1.8 8.3 86 1.1 WSW 44 63 24 34 998.6 998.6 13.4
01/02:56pm 10.4 1.2 8.0 85 1.2 WSW 46 63 25 34 998.4 998.4 13.4
01/02:30pm 10.5 0.7 8.8 89 0.8 WSW 50 72 27 39 997.4 997.4 12.8
01/02:00pm 10.8 0.5 9.6 92 0.6 W 54 80 29 43 995.9 995.9 11.8
01/01:47pm 10.8 0.1 9.4 91 0.7 W 56 80 30 43 995.2 995.2 11.0
01/01:30pm 10.9 -1.9 9.7 92 0.6 W 67 91 36 49 994.2 994.2 10.4
01/01:00pm 11.6 -1.2 10.8 95 0.4 WSW 69 93 37 50 992.2 992.2 8.2
01/12:45pm 12.2 3.8 11.1 93 0.6 W 46 80 25 43 990.9 990.9 5.8
01/12:44pm 12.2 4.4 11.1 93 0.6 W 43 80 23 43 990.9 990.9 5.8
01/12:43pm 12.3 5.3 11.2 93 0.6 W 39 78 21 42 990.9 990.9 5.6
01/12:41pm 12.3 6.6 11.2 93 0.6 W 32 56 17 30 991.0 991.0 5.6
01/12:38pm 12.3 7.3 10.9 91 0.7 W 28 56 15 30 991.0 991.0 4.8
01/12:37pm 12.3 7.3 10.9 91 0.7 W 28 56 15 30 991.0 991.0 4.2
01/12:30pm 12.4 8.6 11.0 91 0.7 WNW 22 33 12 18 990.7 990.7 2.6
01/12:27pm 12.4 8.6 11.0 91 0.7 WNW 22 33 12 18 990.6 990.6 2.6
01/12:26pm 12.4 9.0 11.1 92 0.7 WNW 20 33 11 18 990.6 990.6 2.6
01/12:06pm 12.2 7.2 10.9 92 0.7 WNW 28 41 15 22 990.7 990.7 2.4
01/12:00pm 12.5 8.3 11.1 91 0.7 NW 24 33 13 18 990.7 990.7 2.0
01/11:30am 12.9 9.6 11.5 91 0.7 N 20 30 11 16 991.0 991.0 1.4
01/11:29am 13.0 9.7 11.6 91 0.7 N 20 30 11 16 991.0 991.0 1.4
01/11:08am 13.9 10.6 11.6 86 1.2 N 20 28 11 15 991.3 991.3 0.4
01/11:00am 14.9 12.3 11.9 82 1.6 N 17 24 9 13 991.3 991.3 0.0
01/10:30am 14.7 12.9 12.2 85 1.4 NNW 13 17 7 9 991.8 991.8 0.0
01/10:00am 14.2 11.9 11.9 86 1.3 N 15 22 8 12 992.2 992.2 0.0
01/09:30am 13.3 10.8 11.2 87 1.1 NNE 15 24 8 13 992.7 992.7 0.0
01/09:00am 13.2 9.8 11.1 87 1.1 NNE 20 28 11 15 992.9 992.9 9.0
01/08:30am 12.9 9.4 11.0 88 1.0 NE 20 32 11 17 993.4 993.4 9.0
01/08:00am 12.9 7.9 11.0 88 1.0 NE 28 43 15 23 994.2 994.2 9.0
01/07:37am 12.9 7.9 11.1 89 0.9 NE 28 46 15 25 994.6 994.6 9.0
01/07:30am 12.9 8.7 11.1 89 0.9 NE 24 39 13 21 994.8 994.8 9.0
01/07:00am 12.7 9.9 11.3 91 0.7 ENE 17 24 9 13 995.5 995.5 8.6
01/06:30am 13.0 10.3 11.6 91 0.7 NE 17 26 9 14 996.7 996.7 8.4
01/06:00am 12.9 11.0 11.8 93 0.6 NE 13 20 7 11 997.3 997.3 8.4
01/05:30am 13.0 10.7 11.9 93 0.6 NNE 15 20 8 11 998.4 998.4 8.2
01/05:10am 13.2 11.0 12.1 93 0.6 NNE 15 22 8 12 999.0 999.0 8.0
01/05:00am 13.3 10.8 12.2 93 0.6 NNE 17 24 9 13 999.1 999.1 7.4
01/04:43am 13.6 11.2 12.5 93 0.6 NNE 17 26 9 14 999.1 999.1 6.0
01/04:30am 13.8 11.4 12.5 92 0.7 NE 17 20 9 11 998.9 998.9 4.6
01/04:00am 14.8 9.7 13.2 90 0.9 NNW 32 44 17 24 999.2 999.2 2.4
01/03:55am 15.1 10.8 13.1 88 1.1 NNW 28 43 15 23 999.2 999.2 2.0
01/03:49am 15.3 12.7 13.3 88 1.1 NNW 19 35 10 19 999.4 999.4 1.2
01/03:30am 16.1 15.5 13.4 84 1.5 NE 9 13 5 7 998.2 998.2 0.4
01/03:00am 16.2 14.1 13.7 85 1.4 N 17 22 9 12 999.4 999.4 0.4
01/02:30am 16.2 13.2 12.7 80 1.9 NNW 20 33 11 18 999.8 999.8 0.4
01/02:00am 17.5 14.3 13.0 75 2.5 N 22 37 12 20 1000.0 1000.0 0.0
01/01:30am 18.0 14.5 12.2 69 3.2 NNE 22 33 12 18 999.9 999.9 0.0
01/01:00am 17.6 14.0 11.9 69 3.1 NNE 22 33 12 18 1000.7 1000.7 0.0
01/12:30am 16.5 13.5 10.6 68 3.1 NNE 17 24 9 13 1002.0 1002.0 0.0
01/12:00am 16.5 13.7 10.1 66 3.4 N 15 28 8 15 1003.0 1003.0 0.0
 
Date/Time
EST
Temp
°C
App
Temp
°C
Dew
Point
Rel
Hum
%
Delta-T
°C
Wind Press
QNH
hPa
Press
MSL
hPa
Rain
since 9 am
mm
Dir
 
Spd
km/h
Gust
km/h
Spd
kts
Gust
kts
30/11:30pm 16.8 14.2 10.6 67 3.3 NNE 15 19 8 10 1004.0 1004.0 0.0
30/11:00pm 16.9 13.9 10.7 67 3.3 NNE 17 28 9 15 1004.8 1004.8 0.0
30/10:30pm 16.3 13.4 11.0 71 2.8 NNE 17 24 9 13 1005.5 1005.5 0.0
30/10:00pm 16.1 12.7 10.6 70 2.9 NNE 19 32 10 17 1006.2 1006.2 0.0
30/09:30pm 16.1 13.3 11.3 73 2.6 N 17 35 9 19 1006.5 1006.5 0.0
30/09:00pm 15.1 13.4 11.1 77 2.1 NNE 11 17 6 9 1006.8 1006.8 0.0
30/08:30pm 15.6 13.5 11.2 75 2.4 N 13 20 7 11 1006.8 1006.8 0.0
30/08:00pm 16.1 13.3 11.3 73 2.6 N 17 28 9 15 1006.9 1006.9 0.0
30/07:30pm 16.3 13.0 11.7 74 2.5 N 20 26 11 14 1006.9 1006.9 0.0
30/07:00pm 16.1 13.1 11.9 76 2.3 N 19 26 10 14 1006.9 1006.9 0.0
30/06:30pm 14.8 13.4 12.1 84 1.5 N 11 13 6 7 1006.9 1006.9 0.0
30/06:00pm 15.8 14.0 13.3 85 1.4 NNW 15 20 8 11 1006.8 1006.8 0.0
30/05:30pm 16.6 13.1 13.5 82 1.7 NNW 24 32 13 17 1006.8 1006.8 0.0
30/05:00pm 17.4 13.7 13.9 80 2.0 NNW 26 37 14 20 1007.0 1007.0 0.0
30/04:30pm 18.0 15.1 13.9 77 2.3 NNW 22 32 12 17 1007.0 1007.0 0.0
30/04:00pm 18.1 14.7 13.8 76 2.5 NNW 24 32 13 17 1007.1 1007.1 0.0
30/03:30pm 18.1 13.9 13.4 74 2.7 NW 28 37 15 20 1007.3 1007.3 0.0
30/03:00pm 18.3 13.1 12.7 70 3.1 NW 32 44 17 24 1007.4 1007.4 0.0
30/02:30pm 19.2 13.6 13.2 68 3.4 NW 35 46 19 25 1007.5 1007.5 0.0
30/02:00pm 19.4 13.8 12.2 63 4.0 NW 33 48 18 26 1007.5 1007.5 0.0
30/01:30pm 19.7 14.3 12.9 65 3.8 NW 33 46 18 25 1007.7 1007.7 0.0
30/01:00pm 18.6 14.6 13.0 70 3.2 NNW 26 35 14 19 1007.9 1007.9 0.0
30/12:30pm 19.9 15.8 12.7 63 4.1 NNW 26 39 14 21 1008.1 1008.1 0.0
30/12:04pm 20.6 15.7 12.6 60 4.5 NNW 30 50 16 27 1008.5 1008.5 0.0
30/12:00pm 20.2 15.9 13.2 64 4.0 NNW 28 35 15 19 1008.6 1008.6 0.0
30/11:38am 20.0 14.9 12.0 60 4.5 NNW 30 50 16 27 1008.9 1008.9 0.0
30/11:30am 19.9 16.1 13.6 67 3.6 NNW 26 37 14 20 1009.1 1009.1 0.0
30/11:00am 19.3 16.1 13.0 67 3.6 N 22 35 12 19 1009.4 1009.4 0.0
30/10:30am 18.8 15.9 12.8 68 3.4 N 20 32 11 17 1009.7 1009.7 0.0
30/10:00am 18.1 14.4 12.8 71 3.0 N 24 35 13 19 1009.9 1009.9 0.0
30/09:30am 17.6 14.1 12.3 71 2.9 N 22 35 12 19 1010.2 1010.2 0.0
30/09:00am 16.9 13.7 11.8 72 2.8 N 20 33 11 18 1010.3 1010.3 14.0
30/08:30am 15.8 13.1 11.6 76 2.3 N 17 26 9 14 1010.3 1010.3 14.0
30/08:00am 15.0 12.5 11.2 78 2.0 NNE 15 22 8 12 1010.1 1010.1 14.0
30/07:30am 14.4 11.5 11.0 80 1.8 N 17 24 9 13 1010.0 1010.0 14.0
30/07:00am 13.8 10.8 10.8 82 1.6 NNE 17 26 9 14 1009.7 1009.7 14.0
30/06:30am 13.1 10.4 10.5 84 1.4 NNE 15 22 8 12 1009.7 1009.7 14.0
30/06:00am 12.8 10.5 10.3 85 1.3 N 13 20 7 11 1009.8 1009.8 14.0
30/05:30am 12.8 10.5 10.5 86 1.2 N 13 19 7 10 1010.0 1010.0 14.0
30/05:00am 12.8 10.1 10.5 86 1.2 NNE 15 19 8 10 1009.9 1009.9 14.0
30/04:30am 13.1 11.0 11.0 87 1.1 NNE 13 19 7 10 1010.0 1010.0 14.0
30/04:00am 13.0 10.8 10.9 87 1.1 NNE 13 19 7 10 1009.9 1009.9 14.0
30/03:30am 13.7 11.2 11.2 85 1.3 N 15 22 8 12 1010.0 1010.0 14.0
30/03:00am 13.7 11.4 11.6 87 1.1 N 15 24 8 13 1010.1 1010.1 14.0
30/02:30am 13.3 11.3 11.5 89 1.0 N 13 20 7 11 1010.3 1010.3 14.0
30/02:00am 13.2 11.2 11.4 89 1.0 N 13 19 7 10 1010.4 1010.4 13.8
30/01:30am 13.7 11.8 11.8 88 1.0 N 13 20 7 11 1010.4 1010.4 13.8
30/01:00am 13.7 11.8 11.9 89 1.0 N 13 20 7 11 1010.5 1010.5 13.8
30/12:30am 13.8 11.9 11.8 88 1.1 N 13 19 7 10 1010.3 1010.3 13.8
30/12:00am 14.2 11.3 12.2 88 1.1 N 19 26 10 14 1010.2 1010.2 13.8
 
Date/Time
EST
Temp
°C
App
Temp
°C
Dew
Point
Rel
Hum
%
Delta-T
°C
Wind Press
QNH
hPa
Press
MSL
hPa
Rain
since 9 am
mm
Dir
 
Spd
km/h
Gust
km/h
Spd
kts
Gust
kts
29/11:30pm 13.9 12.1 12.1 89 1.0 N 13 20 7 11 1010.2 1010.2 13.8
29/11:00pm 13.5 11.3 12.1 91 0.8 N 15 20 8 11 1010.6 1010.6 13.8
29/10:30pm 13.7 12.3 12.1 90 0.9 N 11 20 6 11 1010.8 1010.8 13.8
29/10:00pm 14.0 11.1 12.4 90 0.9 N 19 26 10 14 1010.9 1010.9 13.8
29/09:30pm 14.4 11.5 13.0 91 0.8 N 20 26 11 14 1010.8 1010.8 13.8
29/09:00pm 14.9 11.4 13.4 91 0.8 NNW 24 35 13 19 1010.6 1010.6 13.8
29/08:30pm 14.8 11.3 13.3 91 0.8 N 24 32 13 17 1010.2 1010.2 13.8
29/08:00pm 14.7 11.6 13.4 92 0.7 N 22 30 12 16 1009.8 1009.8 13.8
29/07:57pm 14.8 11.7 13.5 92 0.7 N 22 33 12 18 1009.8 1009.8 13.8
29/07:36pm 14.9 12.2 13.4 91 0.8 N 20 28 11 15 1009.8 1009.8 13.0
29/07:30pm 14.9 12.2 13.4 91 0.8 N 20 28 11 15 1009.8 1009.8 12.6
29/07:00pm 14.9 11.4 13.3 90 0.9 N 24 33 13 18 1009.6 1009.6 12.6
29/06:30pm 15.0 11.5 13.4 90 0.9 N 24 33 13 18 1009.5 1009.5 12.6
29/06:00pm 15.3 11.9 13.8 91 0.8 NNW 24 33 13 18 1009.4 1009.4 12.4
29/05:30pm 15.0 10.7 13.2 89 1.0 NNW 28 41 15 22 1009.1 1009.1 12.4
29/05:00pm 15.5 11.5 14.2 92 0.7 NNW 28 43 15 23 1008.9 1008.9 12.4
29/04:51pm 15.4 11.1 14.3 93 0.6 NNW 30 39 16 21 1008.9 1008.9 12.4
29/04:33pm 15.5 12.4 14.4 93 0.6 NNW 24 35 13 19 1008.8 1008.8 12.2
29/04:30pm 15.6 12.4 14.3 92 0.7 NNW 24 35 13 19 1008.7 1008.7 12.0
29/04:09pm 15.7 12.7 14.7 94 0.6 NNW 24 35 13 19 1008.7 1008.7 11.4
29/04:00pm 15.7 13.6 14.7 94 0.6 NNW 19 24 10 13 1008.6 1008.6 11.2
29/03:53pm 15.7 13.0 14.6 93 0.6 NNW 22 32 12 17 1008.6 1008.6 11.2
29/03:43pm 15.6 13.3 14.6 94 0.6 N 20 35 11 19 1008.6 1008.6 10.8
29/03:30pm 15.6 12.9 14.6 94 0.6 N 22 33 12 18 1008.5 1008.5 10.6
29/03:11pm 15.6 13.8 14.5 93 0.6 NNW 17 20 9 11 1008.5 1008.5 7.0
29/03:02pm 15.7 13.6 14.6 93 0.6 NNW 19 26 10 14 1008.2 1008.2 6.4
29/03:00pm 15.7 13.6 14.6 93 0.6 N 19 26 10 14 1008.2 1008.2 6.0
29/02:37pm 15.8 14.4 14.5 92 0.7 N 15 22 8 12 1008.2 1008.2 4.4
29/02:30pm 15.9 14.5 14.6 92 0.7 N 15 24 8 13 1008.1 1008.1 3.4
29/02:00pm 15.9 13.7 14.4 91 0.9 N 19 26 10 14 1008.2 1008.2 2.6
29/01:30pm 16.1 13.7 14.3 89 1.0 N 20 30 11 16 1008.1 1008.1 1.4
29/01:00pm 16.6 14.1 14.1 85 1.4 N 20 33 11 18 1008.5 1008.5 0.6
29/12:30pm 17.0 15.1 14.1 83 1.7 N 17 26 9 14 1008.9 1008.9 0.6
29/12:00pm 17.0 14.5 14.1 83 1.7 N 20 28 11 15 1009.4 1009.4 0.6
29/11:30am 17.1 14.6 14.0 82 1.8 N 20 32 11 17 1009.9 1009.9 0.4
29/11:00am 17.0 14.5 14.1 83 1.7 NNE 20 32 11 17 1010.0 1010.0 0.4
29/10:30am 16.6 14.2 13.9 84 1.5 N 19 32 10 17 1010.6 1010.6 0.2
29/10:00am 16.5 14.0 13.6 83 1.6 NNE 19 32 10 17 1011.2 1011.2 0.0
29/09:30am 16.1 13.6 13.6 85 1.4 NNE 19 30 10 16 1011.5 1011.5 0.0
29/09:00am 15.8 13.3 13.6 87 1.2 NNE 19 28 10 15 1012.0 1012.0 6.0
29/08:30am 15.8 13.3 13.5 86 1.3 N 19 30 10 16 1012.3 1012.3 6.0
29/08:00am 16.0 13.2 13.3 84 1.5 NNE 20 33 11 18 1011.8 1011.8 5.4
29/07:30am 15.7 12.6 13.4 86 1.3 N 22 37 12 20 1011.6 1011.6 5.4
29/07:00am 15.2 12.5 13.6 90 0.9 NNE 20 32 11 17 1011.6 1011.6 5.4
29/06:30am 15.0 12.6 13.7 92 0.7 NNE 19 30 10 16 1012.1 1012.1 5.4
29/06:00am 15.1 13.1 13.8 92 0.7 NNE 17 26 9 14 1013.0 1013.0 4.2
29/05:30am 15.1 12.6 13.6 91 0.8 N 19 30 10 16 1013.1 1013.1 3.6
29/05:00am 14.7 12.7 13.9 95 0.4 NNE 17 28 9 15 1013.0 1013.0 3.4
29/04:30am 13.0 11.7 12.4 96 0.3 N 11 15 6 8 1013.1 1013.1 2.8
29/04:00am 11.6 10.5 10.8 95 0.4 E 7 11 4 6 1013.3 1013.3 2.4
29/03:30am 11.6 10.7 10.8 95 0.4 S 6 9 3 5 1013.8 1013.8 2.0
29/03:07am 11.0 9.8 10.2 95 0.4 ESE 7 9 4 5 1014.2 1014.3 1.4
29/03:00am 11.1 9.5 10.2 94 0.5 ENE 9 11 5 6 1014.1 1014.2 1.2
29/02:50am 11.3 10.2 10.5 95 0.4 ENE 7 9 4 5 1014.4 1014.5 1.0
29/02:30am 11.0 9.8 10.2 95 0.4 SW 7 11 4 6 1014.6 1014.7 0.2
29/02:00am 10.2 8.7 9.3 94 0.4 ESE 7 9 4 5 1014.6 1014.7 0.0
29/01:30am 9.2 7.6 8.0 92 0.6 E 6 9 3 5 1015.0 1015.1 0.0
29/01:00am 10.0 9.4 8.9 93 0.5 ENE 2 7 1 4 1015.4 1015.5 0.0
29/12:30am 10.0 8.1 9.1 94 0.4 NNE 9 11 5 6 1015.8 1015.8 0.0
29/12:00am 8.1 7.0 6.7 91 0.6 NE 2 6 1 3 1015.9 1015.9 0.0
 
Date/Time
EST
Temp
°C
App
Temp
°C
Dew
Point
Rel
Hum
%
Delta-T
°C
Wind Press
QNH
hPa
Press
MSL
hPa
Rain
since 9 am
mm
Dir
 
Spd
km/h
Gust
km/h
Spd
kts
Gust
kts
28/11:30pm 8.9 8.4 7.8 93 0.5 CALM 0 0 0 0 1016.1 1016.1 0.0
28/11:00pm 8.6 6.9 7.5 93 0.5 NNE 6 7 3 4 1016.4 1016.4 0.0
28/10:30pm 9.1 7.9 8.0 93 0.5 NNE 4 7 2 4 1016.8 1016.8 0.0
28/10:00pm 9.5 7.8 8.4 93 0.5 ENE 7 9 4 5 1017.0 1017.0 0.0
28/09:30pm 9.0 6.8 7.8 92 0.6 ENE 9 9 5 5 1017.1 1017.1 0.0
28/09:00pm 9.8 8.2 8.2 90 0.8 NE 6 9 3 5 1017.3 1017.3 0.0
28/08:30pm 10.0 8.4 8.8 92 0.6 NNE 7 9 4 5 1017.4 1017.4 0.0
28/08:00pm 9.8 9.5 8.6 92 0.6 CALM 0 4 0 2 1017.3 1017.3 0.0
28/07:30pm 9.9 8.8 8.3 90 0.8 NE 4 6 2 3 1017.3 1017.3 0.0
28/07:00pm 10.2 8.7 8.3 88 0.9 N 6 7 3 4 1017.3 1017.3 0.0
28/06:30pm 11.3 10.1 9.4 88 1.0 NNE 6 9 3 5 1017.0 1017.0 0.0
28/06:00pm 12.1 11.7 9.8 86 1.2 W 2 9 1 5 1016.6 1016.6 0.0
28/05:30pm 13.2 12.4 9.8 80 1.7 WSW 4 9 2 5 1016.4 1016.4 0.0
28/05:00pm 16.1 16.2 10.0 67 3.2 CALM 0 0 0 0 1016.4 1016.4 0.0
28/04:30pm 17.0 15.3 7.6 54 4.7 NW 6 7 3 4 1016.5 1016.5 0.0

Other Formats:

Comma delimited format used in spreadsheet applications
http://www.bom.gov.au/fwo/IDT60801/IDT60801.94956.axf

JavaScript Object Notation format (JSON) in row-major order
http://www.bom.gov.au/fwo/IDT60801/IDT60801.94956.json